Time;durP1;ratioP1;P1;durP2;ratioP2;P2;SDS_P1;SDS_P2;PMS_P1;PMS_P2;Temp;Humidity;BMP_temperature;BMP_pressure;BME280_temperature;BME280_humidity;BME280_pressure;Samples;Min_cycle;Max_cycle;Signal;HPM_P1;HPM_P2
2022/10/25 00:02:29;;;;;;;16.02;3.17;;;13.80;99.90;;;;;;4921650;28;20592;-91
2022/10/25 00:04:56;;;;;;;17.77;3.40;;;14.00;99.90;;;;;;4938536;28;20070;-92
2022/10/25 00:07:34;;;;;;;;;;;;;;;;;;;;;
2022/10/25 00:43:13;;;;;;;15.50;3.50;;;13.70;99.90;;;;;;5224226;23;20512;-91
2022/10/25 00:45:41;;;;;;;15.27;3.35;;;12.60;99.90;;;;;;4927839;28;20054;-92
2022/10/25 00:48:11;;;;;;;18.73;4.38;;;13.60;99.90;;;;;;4924061;28;20059;-90
2022/10/25 00:50:57;;;;;;;13.60;3.83;;;13.90;99.90;;;;;;4957297;28;20082;-92
2022/10/25 00:53:34;;;;;;;15.18;4.10;;;13.60;99.90;;;;;;4937002;28;20486;-91
2022/10/25 00:56:14;;;;;;;12.38;3.92;;;12.60;99.90;;;;;;4957575;28;20042;-91
2022/10/25 00:58:48;;;;;;;11.85;4.18;;;13.60;99.90;;;;;;4939162;28;20051;-91
2022/10/25 01:01:17;;;;;;;15.57;3.65;;;13.30;99.90;;;;;;4933619;28;20272;-90
2022/10/25 01:03:45;;;;;;;12.80;3.40;;;12.30;99.90;;;;;;4948388;28;20054;-90
2022/10/25 01:06:29;;;;;;;11.00;3.40;;;13.90;99.90;;;;;;4941864;28;20089;-91
2022/10/25 01:09:01;;;;;;;16.92;4.00;;;14.20;99.90;;;;;;4941876;28;20110;-91
2022/10/25 01:11:26;;;;;;;15.52;4.28;;;13.50;99.90;;;;;;4941261;28;20046;-91
2022/10/25 01:14:04;;;;;;;12.77;3.90;;;13.40;99.90;;;;;;4947978;28;20554;-91
2022/10/25 01:16:45;;;;;;;14.55;4.55;;;13.50;99.90;;;;;;4926888;28;20093;-91
2022/10/25 01:19:39;;;;;;;14.38;4.10;;;13.40;99.90;;;;;;4956361;28;20170;-90
2022/10/25 01:22:14;;;;;;;19.90;4.78;;;13.40;99.90;;;;;;4941159;28;20089;-90
2022/10/25 01:25:20;;;;;;;17.73;4.05;;;13.40;99.90;;;;;;4942163;28;20500;-91
2022/10/25 01:28:07;;;;;;;16.88;4.00;;;12.90;99.90;;;;;;4958135;28;20239;-90
2022/10/25 01:30:51;;;;;;;19.75;4.03;;;13.30;99.90;;;;;;4964287;28;20543;-90
2022/10/25 01:33:45;;;;;;;17.50;4.30;;;13.30;99.90;;;;;;4949454;28;20046;-90
2022/10/25 01:36:22;;;;;;;14.10;3.72;;;13.30;99.90;;;;;;4925347;28;20059;-90
2022/10/25 01:39:06;;;;;;;18.80;4.47;;;13.30;99.90;;;;;;4950493;28;20061;-91
2022/10/25 01:41:40;;;;;;;18.90;3.55;;;13.20;99.90;;;;;;4942110;28;20047;-91
2022/10/25 01:44:37;;;;;;;21.92;4.22;;;13.20;99.90;;;;;;4953241;29;20063;-92
2022/10/25 01:47:34;;;;;;;14.38;3.20;;;13.30;99.90;;;;;;4948301;29;20047;-91
2022/10/25 01:50:10;;;;;;;20.45;3.28;;;14.00;99.90;;;;;;4950454;29;20151;-90
2022/10/25 01:52:40;;;;;;;15.93;3.38;;;13.30;99.90;;;;;;4955746;29;20430;-91
2022/10/25 01:55:10;;;;;;;18.08;3.33;;;13.40;99.90;;;;;;4938691;29;20048;-91
2022/10/25 01:57:52;;;;;;;16.25;3.45;;;13.40;99.90;;;;;;4939809;29;20113;-91
2022/10/25 02:00:22;;;;;;;18.55;4.13;;;13.40;99.90;;;;;;4951366;29;20055;-91
2022/10/25 02:03:10;;;;;;;21.92;3.85;;;13.40;99.90;;;;;;4944159;29;20129;-90
2022/10/25 02:05:53;;;;;;;22.15;4.95;;;13.60;99.90;;;;;;4945520;28;20047;-91
2022/10/25 02:08:33;;;;;;;15.50;3.30;;;13.60;99.90;;;;;;4946906;29;20563;-91
2022/10/25 02:11:22;;;;;;;20.70;3.55;;;13.50;99.90;;;;;;4956236;29;20178;-90
2022/10/25 02:14:01;;;;;;;24.77;3.95;;;13.50;99.90;;;;;;4943132;29;20555;-90
2022/10/25 02:16:36;;;;;;;;;;;13.40;99.90;;;;;;4960404;29;20051;-91
2022/10/25 02:19:05;;;;;;;18.30;3.13;;;13.40;99.90;;;;;;4953517;29;20382;-92
2022/10/25 02:21:37;;;;;;;19.67;3.45;;;13.40;99.90;;;;;;4940895;29;20047;-89
2022/10/25 02:24:12;;;;;;;18.30;3.13;;;12.40;99.90;;;;;;4952585;29;20075;-92
2022/10/25 02:26:39;;;;;;;19.88;3.80;;;13.40;99.90;;;;;;4958544;29;20083;-90
2022/10/25 02:29:10;;;;;;;13.82;2.72;;;13.30;99.90;;;;;;4948769;29;20063;-91
2022/10/25 02:31:38;;;;;;;18.15;3.35;;;13.30;99.90;;;;;;4922318;29;20059;-90
2022/10/25 02:34:07;;;;;;;17.48;3.10;;;13.30;99.90;;;;;;4941484;29;20564;-90
2022/10/25 02:36:33;;;;;;;13.60;3.30;;;12.30;99.90;;;;;;4951219;29;20089;-91
2022/10/25 02:39:02;;;;;;;20.92;3.70;;;13.30;99.90;;;;;;4973059;29;20047;-90
2022/10/25 02:41:29;;;;;;;14.43;3.08;;;13.30;99.90;;;;;;4957813;28;20047;-91
2022/10/25 02:43:55;;;;;;;13.07;2.88;;;13.30;99.90;;;;;;4929770;29;20086;-90
2022/10/25 02:46:22;;;;;;;12.23;3.05;;;13.30;99.90;;;;;;4957123;29;20164;-90
2022/10/25 02:48:51;;;;;;;15.98;2.97;;;13.30;99.90;;;;;;4949394;29;20141;-90
2022/10/25 02:51:17;;;;;;;11.25;2.47;;;13.00;99.90;;;;;;4938273;29;20106;-90
2022/10/25 02:53:46;;;;;;;15.25;3.15;;;13.30;99.90;;;;;;4922627;29;20055;-90
2022/10/25 02:56:19;;;;;;;15.40;2.50;;;13.20;99.90;;;;;;4944867;29;20052;-90
2022/10/25 02:58:46;;;;;;;10.05;2.28;;;13.20;99.90;;;;;;4947375;28;20059;-91
2022/10/25 03:01:13;;;;;;;10.90;2.53;;;13.30;99.90;;;;;;4937843;29;20047;-91
2022/10/25 03:03:41;;;;;;;15.93;2.65;;;13.40;99.90;;;;;;4937768;29;20051;-90
2022/10/25 03:06:09;;;;;;;12.00;2.78;;;13.40;99.90;;;;;;4937568;29;20044;-91
2022/10/25 03:08:38;;;;;;;14.00;2.45;;;13.40;99.90;;;;;;4952790;29;20083;-91
2022/10/25 03:11:07;;;;;;;10.93;2.50;;;13.30;99.90;;;;;;4936942;29;20050;-89
2022/10/25 03:13:33;;;;;;;13.27;2.45;;;13.30;99.90;;;;;;4938283;29;20089;-91
2022/10/25 03:15:59;;;;;;;13.98;2.88;;;13.30;99.90;;;;;;4937963;29;20087;-90
2022/10/25 03:18:25;;;;;;;10.75;2.85;;;13.30;99.90;;;;;;4936631;29;20047;-90
2022/10/25 03:20:51;;;;;;;13.20;2.80;;;13.30;99.90;;;;;;4935655;29;20051;-90
2022/10/25 03:23:17;;;;;;;13.20;2.45;;;12.40;99.90;;;;;;4936622;29;20051;-90
2022/10/25 03:25:43;;;;;;;14.15;2.42;;;13.30;99.90;;;;;;4936480;29;20071;-90
2022/10/25 03:28:12;;;;;;;13.75;2.60;;;13.30;99.90;;;;;;4935567;29;20078;-91
2022/10/25 03:30:40;;;;;;;14.00;2.67;;;13.10;99.90;;;;;;4928236;29;20087;-91
2022/10/25 03:33:06;;;;;;;13.52;2.80;;;13.30;99.90;;;;;;4936701;28;20050;-90
2022/10/25 03:35:32;;;;;;;14.38;3.22;;;14.90;99.90;;;;;;4937030;29;20051;-90
2022/10/25 03:37:58;;;;;;;10.75;2.67;;;13.30;99.90;;;;;;4937679;29;20517;-90
2022/10/25 03:40:26;;;;;;;14.73;2.75;;;13.30;99.90;;;;;;4937103;29;20054;-90
2022/10/25 03:42:52;;;;;;;11.65;3.50;;;13.30;99.90;;;;;;4924966;28;20066;-93
2022/10/25 03:45:20;;;;;;;13.60;2.90;;;13.40;99.90;;;;;;4925070;28;20062;-92
2022/10/25 03:47:46;;;;;;;13.90;3.03;;;13.30;99.90;;;;;;4941044;28;20388;-90
2022/10/25 03:50:13;;;;;;;13.75;2.63;;;13.30;99.90;;;;;;4948910;28;20559;-90
2022/10/25 03:52:39;;;;;;;11.00;2.83;;;13.30;99.90;;;;;;4954591;28;20051;-91
2022/10/25 03:55:14;;;;;;;12.00;2.58;;;13.30;99.90;;;;;;4941002;28;20050;-91
2022/10/25 03:57:43;;;;;;;12.82;2.67;;;13.30;99.90;;;;;;4939736;28;20051;-91
2022/10/25 04:00:16;;;;;;;10.63;2.40;;;13.30;99.90;;;;;;4939792;28;20054;-91
2022/10/25 04:02:42;;;;;;;15.25;2.60;;;13.20;99.90;;;;;;4939675;28;20551;-91
2022/10/25 04:05:08;;;;;;;11.93;2.63;;;13.20;99.90;;;;;;4938766;28;20051;-90
2022/10/25 04:07:36;;;;;;;12.55;2.58;;;13.40;99.90;;;;;;4945442;28;20055;-92
2022/10/25 04:10:03;;;;;;;14.85;2.50;;;13.40;99.90;;;;;;4953715;28;20074;-90
2022/10/25 04:12:32;;;;;;;13.70;2.60;;;13.40;99.90;;;;;;4938420;28;20058;-90
2022/10/25 04:14:58;;;;;;;10.35;2.50;;;13.30;99.90;;;;;;4939567;28;20113;-91
2022/10/25 04:17:24;;;;;;;10.38;2.70;;;13.20;99.90;;;;;;4965704;28;20469;-91
2022/10/25 04:19:55;;;;;;;9.65;2.25;;;13.30;99.90;;;;;;4948983;28;20073;-90
2022/10/25 04:22:21;;;;;;;13.88;3.08;;;13.20;99.90;;;;;;4939891;28;20489;-90
2022/10/25 04:24:52;;;;;;;12.20;3.08;;;13.20;99.90;;;;;;4944961;28;20042;-89
2022/10/25 04:27:20;;;;;;;14.45;2.83;;;13.20;99.90;;;;;;4923049;28;20062;-90
2022/10/25 04:29:55;;;;;;;10.15;2.40;;;13.20;99.90;;;;;;4953926;28;20055;-90
2022/10/25 04:32:21;;;;;;;10.52;2.60;;;13.20;99.90;;;;;;4943165;28;20051;-90
2022/10/25 04:34:46;;;;;;;13.65;2.83;;;13.20;99.90;;;;;;4960695;28;20043;-90
2022/10/25 04:37:12;;;;;;;15.02;2.65;;;13.40;99.90;;;;;;4950570;28;20159;-90
2022/10/25 04:39:38;;;;;;;11.10;2.63;;;13.30;99.90;;;;;;4943691;28;20493;-90
2022/10/25 04:42:04;;;;;;;13.07;2.70;;;13.30;99.90;;;;;;4943693;28;20050;-91
2022/10/25 04:44:56;;;;;;;10.30;2.10;;;12.50;99.90;;;;;;4941935;29;20109;-90
2022/10/25 04:47:22;;;;;;;14.65;2.67;;;12.30;99.90;;;;;;4947733;28;20066;-89
2022/10/25 04:49:48;;;;;;;11.38;2.70;;;13.30;99.90;;;;;;4954181;28;20054;-89
2022/10/25 04:52:19;;;;;;;16.58;2.78;;;13.40;99.90;;;;;;4959959;28;20042;-92
2022/10/25 04:54:45;;;;;;;9.13;2.58;;;13.20;99.90;;;;;;4954890;28;20542;-89
2022/10/25 04:57:11;;;;;;;10.82;2.65;;;13.40;99.90;;;;;;4927780;28;20059;-90
2022/10/25 04:59:37;;;;;;;10.90;2.60;;;13.30;99.90;;;;;;4954712;28;20074;-89
2022/10/25 05:02:03;;;;;;;13.90;2.53;;;13.30;99.90;;;;;;4954639;28;20042;-91
2022/10/25 05:04:29;;;;;;;13.23;3.30;;;13.30;99.90;;;;;;4943472;28;20061;-92
2022/10/25 05:06:54;;;;;;;12.10;2.78;;;13.30;99.90;;;;;;4958097;28;20065;-90
2022/10/25 05:09:20;;;;;;;12.38;3.28;;;13.30;99.90;;;;;;4924910;28;20055;-90
2022/10/25 05:11:46;;;;;;;13.45;2.92;;;13.30;99.90;;;;;;4942164;28;20109;-90
2022/10/25 05:14:18;;;;;;;9.27;2.30;;;13.20;99.90;;;;;;4943121;28;20082;-92
2022/10/25 05:16:47;;;;;;;11.52;2.78;;;13.20;99.90;;;;;;4957538;28;20062;-90
2022/10/25 05:19:15;;;;;;;14.93;2.72;;;13.10;99.90;;;;;;4936336;28;20130;-91
2022/10/25 05:21:50;;;;;;;11.85;3.17;;;13.10;99.90;;;;;;4948904;28;20046;-91
2022/10/25 05:24:21;;;;;;;9.85;2.40;;;13.30;99.90;;;;;;4940622;28;20501;-92
2022/10/25 05:26:47;;;;;;;14.45;3.33;;;13.10;99.90;;;;;;4925798;28;20058;-91
2022/10/25 05:29:22;;;;;;;13.88;3.35;;;13.20;99.90;;;;;;4957541;28;20101;-90
2022/10/25 05:31:48;;;;;;;9.82;2.55;;;13.30;99.90;;;;;;4941455;28;20047;-90
2022/10/25 05:34:34;;;;;;;10.43;3.10;;;13.20;99.90;;;;;;4926941;28;20090;-92
2022/10/25 05:37:05;;;;;;;11.57;2.97;;;13.30;99.90;;;;;;4948822;28;20568;-90
2022/10/25 05:39:31;;;;;;;13.73;3.78;;;13.40;99.90;;;;;;4946912;28;20054;-92
2022/10/25 05:42:07;;;;;;;7.38;2.72;;;;;;;;;;4942157;28;20138;-92
2022/10/25 05:44:36;;;;;;;11.82;2.72;;;13.30;99.90;;;;;;4955017;28;20051;-92
2022/10/25 05:47:05;;;;;;;8.07;2.63;;;12.90;99.90;;;;;;4943234;28;20065;-91
2022/10/25 05:49:30;;;;;;;15.30;3.55;;;13.40;99.90;;;;;;4945767;28;20074;-92
2022/10/25 05:51:58;;;;;;;10.80;2.67;;;13.20;99.90;;;;;;4943301;28;20058;-91
2022/10/25 05:54:30;;;;;;;9.50;2.45;;;13.20;99.90;;;;;;4925373;28;20115;-90
2022/10/25 05:56:56;;;;;;;12.32;3.30;;;12.90;99.90;;;;;;4952894;28;20047;-92
2022/10/25 05:59:29;;;;;;;10.68;2.80;;;13.20;99.90;;;;;;4940407;28;20054;-92
2022/10/25 06:01:55;;;;;;;13.88;3.15;;;13.20;99.90;;;;;;4932269;28;20047;-91
2022/10/25 06:04:21;;;;;;;12.90;3.40;;;13.30;99.90;;;;;;4931960;28;20130;-89
2022/10/25 06:06:50;;;;;;;10.35;2.78;;;13.20;99.90;;;;;;4941010;28;20480;-89
2022/10/25 06:09:20;;;;;;;12.82;3.30;;;12.80;99.90;;;;;;4939942;28;20509;-90
2022/10/25 06:11:48;;;;;;;11.68;3.00;;;13.60;99.90;;;;;;4955211;28;20043;-91
2022/10/25 06:14:14;;;;;;;16.77;3.70;;;13.20;99.90;;;;;;4939212;28;20062;-92
2022/10/25 06:16:43;;;;;;;10.15;3.38;;;13.20;99.90;;;;;;4945983;28;20054;-92
2022/10/25 06:19:11;;;;;;;17.25;4.03;;;13.30;99.90;;;;;;4939014;28;20057;-94
2022/10/25 06:21:37;;;;;;;10.35;2.75;;;12.80;99.90;;;;;;4955346;28;20127;-92
2022/10/25 06:24:03;;;;;;;11.10;3.60;;;13.20;99.90;;;;;;4942560;28;20070;-93
2022/10/25 06:26:30;;;;;;;14.68;3.60;;;13.20;99.90;;;;;;4940618;28;20046;-93
2022/10/25 06:29:01;;;;;;;11.85;3.47;;;13.10;99.90;;;;;;4939009;28;20125;-95
2022/10/25 06:31:30;;;;;;;18.23;3.72;;;13.20;99.90;;;;;;4958202;28;20050;-94
2022/10/25 06:33:58;;;;;;;11.50;3.00;;;13.90;99.90;;;;;;4939909;28;20056;-91
2022/10/25 06:36:26;;;;;;;16.58;3.33;;;13.20;99.90;;;;;;4940652;28;20138;-92
2022/10/25 06:38:52;;;;;;;10.85;3.22;;;;;;;;;;4945825;28;20051;-94
2022/10/25 06:41:26;;;;;;;13.50;3.28;;;13.20;99.90;;;;;;4951497;28;20129;-94
2022/10/25 06:43:53;;;;;;;14.75;3.50;;;13.50;99.90;;;;;;4915237;29;20063;-94
2022/10/25 06:46:21;;;;;;;13.73;3.70;;;13.10;99.90;;;;;;4963034;28;20060;-94
2022/10/25 06:48:50;;;;;;;13.63;3.42;;;13.20;99.90;;;;;;4954215;29;20135;-94
2022/10/25 06:51:30;;;;;;;11.02;3.35;;;13.10;99.90;;;;;;4953117;28;20051;-94
2022/10/25 06:53:59;;;;;;;12.23;3.30;;;13.20;99.90;;;;;;4923569;29;20047;-95
2022/10/25 06:56:28;;;;;;;18.45;3.67;;;13.10;99.90;;;;;;4949978;29;20040;-93
2022/10/25 06:58:54;;;;;;;15.52;4.18;;;13.20;99.90;;;;;;4946294;29;20051;-94
2022/10/25 07:01:24;;;;;;;14.63;3.90;;;12.20;99.90;;;;;;4931862;29;20051;-94
2022/10/25 07:03:52;;;;;;;16.05;3.95;;;14.30;99.90;;;;;;4939694;29;20184;-93
2022/10/25 07:06:25;;;;;;;10.88;3.70;;;13.30;99.90;;;;;;4936493;29;20059;-95
2022/10/25 07:08:54;;;;;;;13.15;3.97;;;13.20;99.90;;;;;;4946835;29;20106;-93
2022/10/25 07:11:38;;;;;;;12.73;4.07;;;13.20;99.90;;;;;;4946176;29;20043;-92
2022/10/25 07:14:07;;;;;;;16.23;4.30;;;13.40;99.90;;;;;;4968574;29;20088;-93
2022/10/25 07:16:38;;;;;;;15.10;4.00;;;13.30;99.90;;;;;;4932984;29;20058;-93
2022/10/25 07:19:04;;;;;;;9.43;3.25;;;13.50;99.90;;;;;;4946941;28;20804;-89
2022/10/25 07:21:31;;;;;;;15.55;4.57;;;13.40;99.90;;;;;;4950984;28;20082;-92
2022/10/25 07:23:57;;;;;;;13.15;3.90;;;13.30;99.90;;;;;;4965389;29;20055;-91
2022/10/25 07:26:29;;;;;;;10.57;4.07;;;13.30;99.90;;;;;;4943817;29;20057;-91
2022/10/25 07:28:56;;;;;;;13.55;3.45;;;13.50;99.90;;;;;;4944921;29;20078;-87
2022/10/25 07:31:31;;;;;;;11.27;3.35;;;13.30;99.90;;;;;;4971841;28;20086;-85
2022/10/25 07:34:15;;;;;;;14.13;3.60;;;13.20;99.90;;;;;;4954302;28;20086;-95
2022/10/25 07:37:04;;;;;;;14.65;4.30;;;13.50;99.90;;;;;;4937335;28;20043;-95
2022/10/25 07:39:40;;;;;;;15.50;4.10;;;12.50;99.90;;;;;;4932810;29;20067;-96
2022/10/25 07:42:19;;;;;;;11.55;3.92;;;13.40;99.90;;;;;;4941292;29;20047;-95
2022/10/25 07:44:53;;;;;;;20.38;4.60;;;13.50;99.90;;;;;;4925638;29;20122;-94
2022/10/25 07:47:57;;;;;;;14.45;4.40;;;13.40;99.90;;;;;;4941357;29;20452;-95
2022/10/25 07:53:18;;;;;;;12.10;3.60;;;14.90;99.90;;;;;;4943385;29;20074;-95
2022/10/25 07:55:50;;;;;;;13.00;3.58;;;13.70;99.90;;;;;;4955094;29;20054;-95
2022/10/25 07:58:34;;;;;;;13.90;3.07;;;13.80;99.90;;;;;;4960097;29;20067;-95
2022/10/25 08:01:23;;;;;;;14.68;3.63;;;13.80;99.90;;;;;;4956131;29;20332;-95
2022/10/25 08:04:00;;;;;;;14.32;3.40;;;13.70;99.90;;;;;;4936839;28;20077;-95
2022/10/25 08:06:34;;;;;;;10.90;3.10;;;13.40;99.90;;;;;;4955756;28;20055;-95
2022/10/25 08:09:13;;;;;;;11.40;2.92;;;13.80;99.90;;;;;;4943410;29;20043;-94
2022/10/25 08:11:44;;;;;;;15.05;3.42;;;13.70;99.90;;;;;;4953540;29;20051;-89
2022/10/25 08:14:09;;;;;;;11.07;3.13;;;13.90;99.90;;;;;;4937580;29;20122;-89
2022/10/25 08:16:35;;;;;;;12.32;3.20;;;14.00;99.90;;;;;;4952667;29;20048;-89
2022/10/25 08:19:01;;;;;;;9.95;3.08;;;14.10;99.90;;;;;;4937753;29;20059;-87
2022/10/25 08:21:27;;;;;;;10.60;3.00;;;14.60;99.90;;;;;;4937899;29;20058;-87
2022/10/25 08:23:52;;;;;;;12.45;2.72;;;13.10;99.90;;;;;;4927153;29;20054;-88
2022/10/25 08:26:23;;;;;;;10.85;2.75;;;14.30;99.90;;;;;;4928225;29;20065;-87
2022/10/25 08:28:50;;;;;;;10.07;3.28;;;14.60;99.90;;;;;;4953117;29;20382;-87
2022/10/25 08:31:15;;;;;;;10.82;3.17;;;14.90;99.90;;;;;;4938270;29;20133;-88
2022/10/25 08:33:42;;;;;;;8.20;2.78;;;14.90;99.90;;;;;;4943529;29;20489;-87
2022/10/25 08:36:31;;;;;;;8.75;2.83;;;14.20;99.90;;;;;;4935364;29;20104;-95
2022/10/25 08:38:57;;;;;;;11.80;2.67;;;15.10;99.90;;;;;;4924043;29;20136;-87
2022/10/25 08:41:49;;;;;;;8.23;2.72;;;15.10;99.90;;;;;;4953288;29;20167;-90
2022/10/25 08:44:22;;;;;;;11.82;2.67;;;15.10;99.90;;;;;;4944310;29;20635;-88
2022/10/25 08:47:01;;;;;;;10.02;2.55;;;13.70;99.90;;;;;;4950218;29;20724;-96
2022/10/25 08:49:48;;;;;;;10.80;2.67;;;15.00;99.90;;;;;;4931335;29;20089;-84
2022/10/25 08:53:02;;;;;;;9.07;2.63;;;15.00;99.90;;;;;;4935380;29;20117;-92
2022/10/25 08:55:38;;;;;;;9.18;2.50;;;14.80;99.90;;;;;;4927256;29;20202;-90
2022/10/25 08:58:12;;;;;;;12.70;2.60;;;15.00;99.90;;;;;;4933191;28;20039;-92
2022/10/25 09:00:41;;;;;;;10.85;2.67;;;15.00;99.90;;;;;;4956818;29;20315;-90
2022/10/25 09:03:29;;;;;;;10.10;2.60;;;14.80;99.90;;;;;;4939082;29;20050;-91
2022/10/25 09:06:22;;;;;;;7.93;2.17;;;14.60;99.90;;;;;;4941282;28;20051;-91
2022/10/25 09:08:58;;;;;;;9.23;2.55;;;15.30;99.90;;;;;;4946451;28;20054;-86
2022/10/25 09:11:38;;;;;;;8.25;2.20;;;14.00;99.90;;;;;;4959267;28;20405;-92
2022/10/25 09:14:12;;;;;;;10.45;2.13;;;14.80;99.90;;;;;;4953916;28;20138;-92
2022/10/25 09:17:11;;;;;;;12.05;2.28;;;14.80;99.90;;;;;;4952605;29;20768;-89
2022/10/25 09:20:03;;;;;;;10.40;2.65;;;14.30;99.90;;;;;;4934734;29;20039;-93
2022/10/25 09:22:44;;;;;;;11.57;2.53;;;14.70;99.90;;;;;;4957462;29;20054;-90
2022/10/25 09:25:36;;;;;;;12.68;2.85;;;14.90;99.90;;;;;;4951969;29;20110;-91
2022/10/25 09:28:07;;;;;;;19.13;3.40;;;14.00;99.90;;;;;;4944100;29;20043;-92
2022/10/25 09:30:45;;;;;;;12.65;2.10;;;14.90;99.90;;;;;;4942122;29;20051;-94
2022/10/25 09:33:17;;;;;;;12.10;2.58;;;14.80;99.90;;;;;;4955638;28;20057;-95
2022/10/25 09:35:59;;;;;;;13.20;2.42;;;14.80;99.90;;;;;;4960412;28;20043;-95
2022/10/25 09:38:51;;;;;;;12.13;2.17;;;14.90;99.90;;;;;;4963095;29;20099;-94
2022/10/25 09:41:27;;;;;;;13.48;2.40;;;14.90;99.90;;;;;;4968351;28;20062;-92
2022/10/25 09:44:05;;;;;;;8.20;2.10;;;14.80;99.90;;;;;;4939524;29;20067;-94
2022/10/25 09:46:42;;;;;;;10.50;2.30;;;14.90;99.90;;;;;;4962330;29;20051;-93
2022/10/25 09:49:34;;;;;;;10.82;1.95;;;14.80;99.90;;;;;;4968435;29;20052;-90
2022/10/25 09:52:17;;;;;;;8.68;2.50;;;14.90;99.90;;;;;;4962747;28;20054;-88
2022/10/25 09:55:24;;;;;;;10.20;2.10;;;14.90;99.90;;;;;;4946951;29;20043;-94
2022/10/25 09:57:55;;;;;;;11.68;2.10;;;15.00;99.90;;;;;;4940149;29;20386;-92
2022/10/25 10:00:21;;;;;;;7.97;1.80;;;15.00;99.90;;;;;;4947362;28;20070;-88
2022/10/25 10:03:46;;;;;;;11.63;2.17;;;15.10;99.90;;;;;;4944531;29;20035;-94
2022/10/25 10:06:52;;;;;;;;;;;;;;;;;;;;;
2022/10/25 10:09:37;;;;;;;8.48;2.42;;;15.10;99.90;;;;;;4948708;29;20063;-87
2022/10/25 10:12:25;;;;;;;8.65;2.00;;;16.00;99.90;;;;;;4951637;29;20053;-94
2022/10/25 10:15:07;;;;;;;9.50;1.80;;;15.10;99.90;;;;;;4955682;28;20047;-93
2022/10/25 10:18:21;;;;;;;;;;;;;;;;;;;;;
2022/10/25 10:21:12;;;;;;;10.77;2.20;;;14.50;99.90;;;;;;4952949;29;20110;-95
2022/10/25 10:24:07;;;;;;;7.20;1.98;;;15.10;99.90;;;;;;4955703;29;20105;-93
2022/10/25 10:26:58;;;;;;;;;;;;;;;;;;;;;
2022/10/25 10:29:35;;;;;;;7.55;1.70;;;15.00;99.90;;;;;;4948296;29;20145;-94
2022/10/25 10:32:30;;;;;;;;;;;;;;;;;;;;;
2022/10/25 10:35:30;;;;;;;8.77;2.03;;;15.00;99.90;;;;;;4954938;29;20126;-95
2022/10/25 10:38:20;;;;;;;13.30;1.90;;;15.20;99.90;;;;;;4939496;28;20509;-94
2022/10/25 10:41:23;;;;;;;;;;;15.30;99.90;;;;;;4949381;28;20156;-95
2022/10/25 10:44:10;;;;;;;8.57;1.60;;;15.30;99.90;;;;;;4923610;29;19922;-92
2022/10/25 10:46:55;;;;;;;12.70;2.00;;;15.50;99.90;;;;;;4950090;29;20058;-95
2022/10/25 10:49:49;;;;;;;14.60;2.15;;;16.30;99.90;;;;;;4960164;28;20054;-95
2022/10/25 10:52:38;;;;;;;8.52;1.88;;;15.60;99.90;;;;;;4988543;23;20061;-94
2022/10/25 10:55:49;;;;;;;11.18;1.95;;;15.60;99.90;;;;;;4924251;28;20110;-94
2022/10/25 10:58:46;;;;;;;9.45;2.00;;;15.50;99.90;;;;;;4926919;28;20058;-96
2022/10/25 11:01:16;;;;;;;;;;;15.60;99.90;;;;;;4926087;28;20036;-95
2022/10/25 11:03:42;;;;;;;7.65;1.95;;;15.50;99.90;;;;;;4971380;28;19929;-94
2022/10/25 11:06:23;;;;;;;9.57;2.30;;;15.80;99.90;;;;;;4932014;28;20070;-96
2022/10/25 11:09:08;;;;;;;12.75;2.13;;;15.60;99.90;;;;;;4914982;28;20097;-94
2022/10/25 11:11:39;;;;;;;15.10;1.98;;;15.80;99.90;;;;;;4936671;28;20047;-95
2022/10/25 11:15:13;;;;;;;9.20;2.30;;;15.60;99.90;;;;;;4926909;28;20045;-95
2022/10/25 11:17:53;;;;;;;10.02;1.92;;;14.90;99.90;;;;;;4933530;28;20051;-94
2022/10/25 11:20:26;;;;;;;10.88;2.10;;;15.90;99.90;;;;;;4933091;28;20055;-92
2022/10/25 11:23:40;;;;;;;;;;;;;;;;;;;;;
2022/10/25 11:26:42;;;;;;;;;;;;;;;;;;;;;
2022/10/25 11:29:49;;;;;;;8.38;1.95;;;16.00;99.90;;;;;;4934624;28;20051;-94
2022/10/25 11:32:55;;;;;;;8.85;2.08;;;16.10;99.90;;;;;;4923091;28;20051;-93
2022/10/25 11:36:02;;;;;;;;;;;;;;;;;;;;;
2022/10/25 11:38:43;;;;;;;9.13;2.17;;;15.90;99.90;;;;;;4947580;28;20050;-88
2022/10/25 11:41:37;;;;;;;12.93;2.47;;;16.20;99.90;;;;;;4918163;29;20138;-89
2022/10/25 11:44:27;;;;;;;8.07;1.88;;;15.40;99.90;;;;;;4940687;28;20082;-89
2022/10/25 11:47:39;;;;;;;13.07;2.50;;;16.30;99.90;;;;;;4940562;28;20676;-94
2022/10/25 11:50:20;;;;;;;11.02;1.80;;;17.50;99.90;;;;;;4934330;28;20473;-93
2022/10/25 11:53:22;;;;;;;12.52;1.90;;;16.90;99.90;;;;;;4940361;29;20051;-90
2022/10/25 11:56:33;;;;;;;11.93;1.90;;;17.50;99.90;;;;;;4942732;29;20124;-95
2022/10/25 11:59:19;;;;;;;7.93;2.00;;;17.10;99.90;;;;;;4961346;28;20043;-93
2022/10/25 12:02:16;;;;;;;11.63;2.13;;;18.60;99.90;;;;;;4951209;28;20035;-90
2022/10/25 12:05:03;;;;;;;9.70;2.15;;;19.30;99.90;;;;;;4958348;28;20607;-95
2022/10/25 12:07:46;;;;;;;8.38;1.95;;;20.00;99.90;;;;;;4947561;28;20566;-91
2022/10/25 12:10:50;;;;;;;8.60;2.05;;;20.30;99.90;;;;;;4946340;28;20051;-94
2022/10/25 12:13:50;;;;;;;6.75;2.08;;;20.70;99.90;;;;;;4945767;28;20051;-91
2022/10/25 12:16:22;;;;;;;12.15;1.92;;;20.80;99.90;;;;;;4954050;28;20050;-90
2022/10/25 12:19:07;;;;;;;9.48;1.95;;;20.30;99.90;;;;;;4939984;28;20066;-94
2022/10/25 12:26:02;;;;;;;11.25;1.77;;;22.40;99.90;;;;;;4897921;28;20140;-95
2022/10/25 12:29:07;;;;;;;8.70;1.95;;;21.30;99.90;;;;;;4933944;28;20504;-94
2022/10/25 12:31:53;;;;;;;11.52;1.90;;;20.60;99.90;;;;;;4936037;28;20050;-94
2022/10/25 12:34:40;;;;;;;11.73;1.90;;;23.40;99.90;;;;;;4930369;28;20073;-95
2022/10/25 12:37:17;;;;;;;10.70;2.10;;;21.30;99.90;;;;;;4943340;28;20081;-95
2022/10/25 12:39:52;;;;;;;7.25;1.67;;;21.60;99.90;;;;;;4926957;28;20039;-94
2022/10/25 12:42:47;;;;;;;10.75;1.77;;;22.70;99.90;;;;;;4914269;28;20047;-94
2022/10/25 12:45:16;;;;;;;8.85;1.85;;;22.50;99.90;;;;;;4942315;28;20047;-94
2022/10/25 12:48:08;;;;;;;7.32;2.03;;;22.80;99.90;;;;;;4932816;28;20055;-94
2022/10/25 12:51:17;;;;;;;9.35;1.90;;;22.50;99.90;;;;;;4934486;28;20059;-95
2022/10/25 12:54:11;;;;;;;7.95;1.50;;;22.60;99.90;;;;;;4942615;28;20220;-95
2022/10/25 12:57:38;;;;;;;7.28;1.95;;;22.50;99.90;;;;;;4929332;28;20051;-93
2022/10/25 13:00:26;;;;;;;6.38;1.70;;;22.40;99.90;;;;;;4914391;29;20040;-93
2022/10/25 13:06:53;;;;;;;10.30;1.85;;;22.00;99.90;;;;;;4939269;28;20096;-94
2022/10/25 13:09:32;;;;;;;;;;;;;;;;;;;;;
2022/10/25 13:12:22;;;;;;;9.95;1.95;;;21.70;99.90;;;;;;4942644;28;20536;-93
2022/10/25 13:18:10;;;;;;;7.68;1.85;;;21.70;99.90;;;;;;4932570;28;20087;-95
2022/10/25 13:21:12;;;;;;;9.43;1.60;;;21.50;99.90;;;;;;4940345;28;20051;-93
2022/10/25 13:23:57;;;;;;;5.38;1.50;;;21.50;99.90;;;;;;4924716;28;20035;-95
2022/10/25 13:26:29;;;;;;;7.00;1.70;;;21.50;99.90;;;;;;4934333;28;20051;-93
2022/10/25 13:29:04;;;;;;;6.93;1.52;;;21.50;99.90;;;;;;4921091;28;20501;-92
2022/10/25 13:31:45;;;;;;;7.30;1.57;;;21.40;99.90;;;;;;4931268;28;20061;-91
2022/10/25 13:34:11;;;;;;;8.00;1.90;;;21.30;99.90;;;;;;4935967;28;20079;-87
2022/10/25 13:36:57;;;;;;;8.13;1.85;;;21.30;99.90;;;;;;4923538;28;20497;-87
2022/10/25 13:39:42;;;;;;;;;;;21.30;99.90;;;;;;4911006;28;20477;-84
2022/10/25 13:42:14;;;;;;;5.60;1.40;;;21.20;99.90;;;;;;4923798;28;19982;-86
2022/10/25 13:44:55;;;;;;;7.22;1.90;;;21.10;99.90;;;;;;4936149;28;20055;-86
2022/10/25 13:47:35;;;;;;;8.18;1.73;;;21.10;99.90;;;;;;4943880;28;20500;-85
2022/10/25 13:50:12;;;;;;;8.75;1.92;;;21.20;99.90;;;;;;4927802;28;20541;-86
2022/10/25 13:52:49;;;;;;;7.38;1.65;;;21.20;99.90;;;;;;4926414;28;20444;-85
2022/10/25 13:55:20;;;;;;;8.98;1.73;;;21.20;99.90;;;;;;4945150;28;20107;-86
2022/10/25 13:57:57;;;;;;;7.70;1.80;;;21.10;99.90;;;;;;4912662;28;20047;-85
2022/10/25 14:00:25;;;;;;;7.63;1.60;;;20.90;99.90;;;;;;4927716;28;20467;-85
2022/10/25 14:03:09;;;;;;;7.82;1.42;;;20.50;99.90;;;;;;4932799;28;20087;-85
2022/10/25 14:08:24;;;;;;;9.48;1.30;;;20.20;99.90;;;;;;4944338;28;20129;-84
2022/10/25 14:10:51;;;;;;;7.82;1.83;;;20.30;99.90;;;;;;4931038;28;20058;-85
2022/10/25 14:13:57;;;;;;;8.02;1.83;;;20.30;99.90;;;;;;4928654;28;20055;-85
2022/10/25 14:16:30;;;;;;;6.10;1.70;;;20.20;99.90;;;;;;4920278;28;20059;-86
2022/10/25 14:19:01;;;;;;;5.55;1.65;;;20.10;99.90;;;;;;4948830;28;20086;-86
2022/10/25 14:21:27;;;;;;;6.72;2.05;;;19.90;99.90;;;;;;4930718;28;20496;-85
2022/10/25 14:23:54;;;;;;;6.10;1.75;;;19.70;99.90;;;;;;4951427;28;20051;-85
2022/10/25 14:26:21;;;;;;;7.45;1.60;;;18.90;99.90;;;;;;4918002;28;20047;-84
2022/10/25 14:28:47;;;;;;;9.57;2.10;;;19.60;99.90;;;;;;4915657;28;20054;-84
2022/10/25 14:31:20;;;;;;;8.68;2.20;;;19.50;99.90;;;;;;4928842;28;20054;-86
2022/10/25 14:33:53;;;;;;;8.30;1.88;;;19.30;99.90;;;;;;4931553;28;20062;-85